KGGW/GGW METAR and TAF weather

Enter ICAO airport designator
Station Type Date Time Source
KGGW METAR 2018/12/13 05:53 UTC NOAA

KGGW 130553Z AUTO 29008KT 10SM CLR M01/M05 A2994 RMK AO2 SLP162 T10061050 10028 21022 51008


Station Type Date Time Source
KGGW Decoded METAR 2018/12/13 05:53 UTC NOAA

GLASGOW INTERNATIONAL AIRPORT , MT, United States (KGGW) 48-13N 106-37W 693M
Dec 13, 2018 - 12:53 AM EST / 2018.12.13 0553 UTC
Wind: from the WNW (290 degrees) at 9 MPH (8 KT):0
Visibility: 10 mile(s):0
Sky conditions: clear
Temperature: 30.9 F (-0.6 C)
Windchill: 23 F (-5 C):1
Dew Point: 23.0 F (-5.0 C)
Relative Humidity: 72%
Pressure (altimeter): 29.94 in. Hg (1013 hPa)
Pressure tendency: 0.02 inches (0.8 hPa) higher than three hours ago
ob: KGGW 130553Z AUTO 29008KT 10SM CLR M01/M05 A2994 RMK AO2 SLP162 T10061050 10028 21022 51008
cycle: 6

Station Type Date Time Source
KGGW TAF 2018/12/13 06:33 UTC NOAA

TAF KGGW 130530Z 1306/1406 26007KT P6SM FEW160
FM131200 VRB06KT P6SM FEW160 WS020/27030KT
FM131800 23011G17KT P6SM BKN250


Example: see airport list